Time;durP1;ratioP1;P1;durP2;ratioP2;P2;SDS_P1;SDS_P2;PMS_P1;PMS_P2;Temp;Humidity;BMP_temperature;BMP_pressure;BME280_temperature;BME280_humidity;BME280_pressure;Samples;Min_cycle;Max_cycle;Signal;HPM_P1;HPM_P2
2023/06/09 00:00:29;;;;;;;5.40;4.35;;;;;;;;;;6220176;23;20051;-65
2023/06/09 00:02:57;;;;;;;7.75;4.53;;;;;;;;;;6246068;23;20020;-66
2023/06/09 00:05:28;;;;;;;8.07;4.32;;;;;;;;;;6245885;23;20390;-67
2023/06/09 00:07:56;;;;;;;7.68;4.45;;;;;;;;;;6245821;23;20095;-67
2023/06/09 00:10:24;;;;;;;7.65;4.32;;;;;;;;;;6245726;23;20074;-66
2023/06/09 00:12:52;;;;;;;8.45;4.80;;;;;;;;;;6219401;23;20016;-66
2023/06/09 00:15:20;;;;;;;6.43;4.63;;;;;;;;;;6245942;23;20342;-66
2023/06/09 00:17:48;;;;;;;8.00;4.70;;;;;;;;;;6245884;23;20067;-65
2023/06/09 00:20:15;;;;;;;5.32;4.63;;;;;;;;;;6246066;23;20020;-66
2023/06/09 00:22:43;;;;;;;6.25;4.28;;;;;;;;;;6245839;23;20091;-66
2023/06/09 00:25:11;;;;;;;8.73;4.60;;;;;;;;;;6219489;23;20020;-67
2023/06/09 00:27:48;;;;;;;7.68;5.63;;;;;;;;;;6245794;23;20023;-65
2023/06/09 00:30:16;;;;;;;7.47;4.55;;;;;;;;;;6218820;23;20023;-66
2023/06/09 00:33:03;;;;;;;7.35;5.00;;;;;;;;;;6245622;23;20027;-66
2023/06/09 00:35:31;;;;;;;5.22;4.45;;;;;;;;;;6218795;23;20507;-66
2023/06/09 00:37:58;;;;;;;7.40;4.80;;;;;;;;;;6193935;23;20032;-66
2023/06/09 00:40:26;;;;;;;10.07;4.78;;;;;;;;;;6218908;23;20027;-66
2023/06/09 00:42:54;;;;;;;7.00;4.82;;;;;;;;;;6218875;23;20066;-66
2023/06/09 00:45:22;;;;;;;9.15;5.07;;;;;;;;;;6218772;23;20444;-67
2023/06/09 00:47:50;;;;;;;9.18;4.85;;;;;;;;;;6218832;23;20031;-67
2023/06/09 00:50:19;;;;;;;7.30;4.85;;;;;;;;;;6218704;23;20441;-67
2023/06/09 00:52:51;;;;;;;6.53;4.70;;;;;;;;;;6218666;23;20021;-67
2023/06/09 00:55:19;;;;;;;6.63;5.18;;;;;;;;;;6245712;23;20058;-66
2023/06/09 00:57:55;;;;;;;7.05;5.07;;;;;;;;;;6218811;23;20016;-66
2023/06/09 01:00:26;;;;;;;6.07;4.80;;;;;;;;;;6218651;23;20046;-66
2023/06/09 01:03:00;;;;;;;7.05;4.85;;;;;;;;;;6218705;23;20028;-66
2023/06/09 01:05:29;;;;;;;6.80;4.88;;;;;;;;;;6218656;23;20343;-66
2023/06/09 01:08:01;;;;;;;5.30;4.28;;;;;;;;;;6218171;23;20279;-66
2023/06/09 01:10:35;;;;;;;7.22;4.75;;;;;;;;;;6218554;23;20383;-67
2023/06/09 01:13:12;;;;;;;6.35;4.53;;;;;;;;;;6245244;23;20387;-65
2023/06/09 01:15:44;;;;;;;7.78;5.00;;;;;;;;;;6245162;23;20405;-65
2023/06/09 01:18:13;;;;;;;7.85;5.03;;;;;;;;;;6245349;23;20012;-65
2023/06/09 01:20:49;;;;;;;7.22;5.22;;;;;;;;;;6245392;23;20023;-65
2023/06/09 01:23:29;;;;;;;6.50;4.72;;;;;;;;;;6218591;23;20023;-65
2023/06/09 01:25:57;;;;;;;8.23;5.15;;;;;;;;;;6245271;23;20015;-65
2023/06/09 01:28:26;;;;;;;7.85;5.10;;;;;;;;;;6218381;23;20028;-65
2023/06/09 01:30:55;;;;;;;6.15;5.00;;;;;;;;;;6218363;23;20020;-65
2023/06/09 01:33:25;;;;;;;8.25;5.00;;;;;;;;;;6218272;23;20095;-65
2023/06/09 01:35:53;;;;;;;6.82;4.88;;;;;;;;;;6245146;23;20019;-65
2023/06/09 01:38:21;;;;;;;8.70;5.32;;;;;;;;;;6245122;23;20091;-65
2023/06/09 01:40:49;;;;;;;6.20;4.80;;;;;;;;;;6218340;23;20044;-65
2023/06/09 01:43:17;;;;;;;7.72;5.18;;;;;;;;;;6218095;23;20024;-65
2023/06/09 01:45:44;;;;;;;8.57;5.40;;;;;;;;;;6218341;23;20020;-65
2023/06/09 01:48:12;;;;;;;8.95;5.13;;;;;;;;;;6245301;23;20095;-65
2023/06/09 01:50:52;;;;;;;7.05;4.85;;;;;;;;;;6218335;23;20024;-65
2023/06/09 01:53:28;;;;;;;7.35;5.10;;;;;;;;;;6245133;23;20047;-65
2023/06/09 01:56:08;;;;;;;11.88;5.05;;;;;;;;;;6244692;23;20052;-65
2023/06/09 01:58:44;;;;;;;7.20;4.88;;;;;;;;;;6217883;23;20020;-65
2023/06/09 02:01:13;;;;;;;6.60;4.93;;;;;;;;;;6217978;23;20024;-65
2023/06/09 02:03:42;;;;;;;8.40;5.93;;;;;;;;;;6218388;23;20023;-65
2023/06/09 02:06:15;;;;;;;7.45;5.20;;;;;;;;;;6218026;23;20403;-65
2023/06/09 02:08:43;;;;;;;8.88;4.78;;;;;;;;;;6218049;23;20023;-65
2023/06/09 02:11:11;;;;;;;8.25;4.78;;;;;;;;;;6217957;23;20032;-65
2023/06/09 02:13:39;;;;;;;7.30;5.13;;;;;;;;;;6218136;23;20020;-65
2023/06/09 02:16:07;;;;;;;9.52;5.43;;;;;;;;;;6217831;23;20407;-65
2023/06/09 02:18:34;;;;;;;10.38;5.20;;;;;;;;;;6218577;23;20040;-65
2023/06/09 02:21:02;;;;;;;6.07;4.65;;;;;;;;;;6220082;23;20024;-65
2023/06/09 02:23:29;;;;;;;6.55;4.55;;;;;;;;;;6220245;23;20024;-65
2023/06/09 02:25:57;;;;;;;5.93;4.90;;;;;;;;;;6220149;23;20013;-65
2023/06/09 02:28:24;;;;;;;7.50;4.90;;;;;;;;;;6220189;23;20027;-65
2023/06/09 02:30:52;;;;;;;9.73;4.43;;;;;;;;;;6220176;23;20104;-65
2023/06/09 02:33:19;;;;;;;6.28;4.68;;;;;;;;;;6246707;23;20431;-65
2023/06/09 02:35:47;;;;;;;5.95;4.40;;;;;;;;;;6220095;23;20017;-66
2023/06/09 02:38:14;;;;;;;7.90;4.82;;;;;;;;;;6219953;23;20350;-68
2023/06/09 02:40:43;;;;;;;8.15;4.45;;;;;;;;;;6219660;23;20473;-66
2023/06/09 02:43:11;;;;;;;6.43;4.50;;;;;;;;;;6219530;23;20020;-66
2023/06/09 02:45:40;;;;;;;7.38;4.65;;;;;;;;;;6246389;23;20569;-66
2023/06/09 02:48:08;;;;;;;8.30;4.80;;;;;;;;;;6219803;23;20398;-67
2023/06/09 02:50:36;;;;;;;6.72;5.00;;;;;;;;;;6219569;23;20020;-66
2023/06/09 02:53:06;;;;;;;10.10;5.20;;;;;;;;;;6219686;23;20020;-67
2023/06/09 02:55:35;;;;;;;9.20;5.05;;;;;;;;;;6219694;23;20066;-66
2023/06/09 02:58:02;;;;;;;7.95;4.85;;;;;;;;;;6219670;23;20020;-66
2023/06/09 03:00:32;;;;;;;6.68;5.20;;;;;;;;;;6219548;23;20044;-66
2023/06/09 03:03:06;;;;;;;9.65;5.65;;;;;;;;;;6219256;23;20012;-66
2023/06/09 03:05:40;;;;;;;8.00;5.32;;;;;;;;;;6219808;23;20024;-66
2023/06/09 03:08:10;;;;;;;8.45;5.72;;;;;;;;;;6219650;23;20020;-66
2023/06/09 03:10:39;;;;;;;10.52;6.10;;;;;;;;;;6219578;23;20020;-66
2023/06/09 03:13:08;;;;;;;10.43;5.85;;;;;;;;;;6219491;23;20024;-66
2023/06/09 03:15:40;;;;;;;7.63;5.45;;;;;;;;;;6219495;23;20035;-66
2023/06/09 03:18:10;;;;;;;9.65;5.28;;;;;;;;;;6219618;23;20016;-65
2023/06/09 03:20:39;;;;;;;11.95;5.40;;;;;;;;;;6219359;23;20024;-66
2023/06/09 03:23:10;;;;;;;7.10;5.68;;;;;;;;;;6219557;23;20449;-66
2023/06/09 03:25:40;;;;;;;10.65;6.32;;;;;;;;;;6219628;23;20135;-65
2023/06/09 03:28:10;;;;;;;11.55;6.00;;;;;;;;;;6219360;23;20016;-65
2023/06/09 03:30:39;;;;;;;7.35;5.75;;;;;;;;;;6218958;23;20024;-65
2023/06/09 03:33:11;;;;;;;9.45;6.53;;;;;;;;;;6219634;23;20342;-65
2023/06/09 03:35:39;;;;;;;7.43;5.82;;;;;;;;;;6219640;23;20028;-65
2023/06/09 03:38:06;;;;;;;9.18;5.90;;;;;;;;;;6219677;23;20066;-64
2023/06/09 03:40:36;;;;;;;9.13;6.32;;;;;;;;;;6219379;23;20020;-65
2023/06/09 03:43:07;;;;;;;9.75;6.20;;;;;;;;;;6219292;23;20457;-66
2023/06/09 03:45:35;;;;;;;11.00;6.90;;;;;;;;;;6194937;23;20043;-66
2023/06/09 03:48:04;;;;;;;9.50;6.35;;;;;;;;;;6219288;23;20022;-66
2023/06/09 03:50:32;;;;;;;11.40;6.32;;;;;;;;;;6218900;23;20020;-66
2023/06/09 03:53:00;;;;;;;8.85;6.25;;;;;;;;;;6219296;23;20020;-66
2023/06/09 03:55:31;;;;;;;9.70;6.07;;;;;;;;;;6219165;23;20030;-67
2023/06/09 03:57:59;;;;;;;8.20;6.30;;;;;;;;;;6219396;23;20047;-67
2023/06/09 04:00:27;;;;;;;10.13;7.18;;;;;;;;;;6219124;23;20026;-67
2023/06/09 04:02:58;;;;;;;10.63;6.75;;;;;;;;;;6218691;23;20099;-66
2023/06/09 04:05:27;;;;;;;9.05;6.22;;;;;;;;;;6216921;23;20024;-66
2023/06/09 04:07:55;;;;;;;13.30;7.93;;;;;;;;;;6218362;23;20047;-66
2023/06/09 04:10:23;;;;;;;11.63;6.90;;;;;;;;;;6218975;23;20020;-66
2023/06/09 04:12:51;;;;;;;9.65;6.70;;;;;;;;;;6218857;23;20031;-66
2023/06/09 04:15:19;;;;;;;10.68;6.38;;;;;;;;;;6218796;23;20028;-66
2023/06/09 04:17:50;;;;;;;10.10;6.63;;;;;;;;;;6195354;23;20020;-66
2023/06/09 04:20:22;;;;;;;12.90;6.25;;;;;;;;;;6218986;23;20031;-66
2023/06/09 04:22:51;;;;;;;10.27;7.72;;;;;;;;;;6194736;23;20024;-66
2023/06/09 04:25:27;;;;;;;15.57;6.53;;;;;;;;;;6218655;23;20024;-66
2023/06/09 04:28:03;;;;;;;10.57;7.10;;;;;;;;;;6245820;23;20385;-66
2023/06/09 04:30:34;;;;;;;11.98;6.50;;;;;;;;;;6218879;23;20149;-66
2023/06/09 04:33:05;;;;;;;11.00;6.28;;;;;;;;;;6218690;23;20062;-66
2023/06/09 04:35:34;;;;;;;7.65;6.05;;;;;;;;;;6219049;23;20040;-66
2023/06/09 04:38:03;;;;;;;12.77;7.05;;;;;;;;;;6218879;23;20066;-66
2023/06/09 04:40:33;;;;;;;12.13;6.25;;;;;;;;;;6218795;23;20473;-66
2023/06/09 04:43:03;;;;;;;11.15;5.75;;;;;;;;;;6218420;23;20016;-66
2023/06/09 04:45:35;;;;;;;9.93;6.00;;;;;;;;;;6218529;23;20047;-66
2023/06/09 04:48:12;;;;;;;14.57;5.68;;;;;;;;;;6218913;23;20332;-66
2023/06/09 04:50:44;;;;;;;8.13;6.18;;;;;;;;;;6218443;23;20024;-66
2023/06/09 04:53:15;;;;;;;10.75;5.63;;;;;;;;;;6218404;23;20016;-66
2023/06/09 04:55:52;;;;;;;8.32;5.90;;;;;;;;;;6218268;23;20450;-66
2023/06/09 04:58:19;;;;;;;10.80;6.15;;;;;;;;;;6218569;23;20016;-66
2023/06/09 05:00:48;;;;;;;6.90;5.35;;;;;;;;;;6218506;23;20024;-66
2023/06/09 05:03:17;;;;;;;7.53;5.88;;;;;;;;;;6218470;23;20446;-66
2023/06/09 05:05:47;;;;;;;7.78;5.57;;;;;;;;;;6218420;23;20078;-67
2023/06/09 05:08:15;;;;;;;6.93;5.10;;;;;;;;;;6218350;23;20020;-66
2023/06/09 05:10:44;;;;;;;7.68;5.03;;;;;;;;;;6218484;23;20365;-66
2023/06/09 05:13:12;;;;;;;11.73;5.70;;;;;;;;;;6218463;23;20099;-66
2023/06/09 05:15:39;;;;;;;6.75;5.30;;;;;;;;;;6218408;23;20032;-66
2023/06/09 05:18:08;;;;;;;9.70;6.00;;;;;;;;;;6218477;23;20070;-66
2023/06/09 05:20:36;;;;;;;6.72;4.63;;;;;;;;;;6245109;23;20020;-66
2023/06/09 05:23:07;;;;;;;14.50;5.32;;;;;;;;;;6218545;23;20461;-66
2023/06/09 05:25:35;;;;;;;9.02;5.07;;;;;;;;;;6218434;23;20024;-66
2023/06/09 05:28:03;;;;;;;7.85;4.80;;;;;;;;;;6218395;23;20023;-66
2023/06/09 05:30:31;;;;;;;6.38;4.50;;;;;;;;;;6245367;23;20099;-66
2023/06/09 05:32:58;;;;;;;8.95;4.68;;;;;;;;;;6218403;23;20390;-66
2023/06/09 05:35:27;;;;;;;6.85;4.25;;;;;;;;;;6218044;23;20047;-66
2023/06/09 05:37:55;;;;;;;8.48;4.05;;;;;;;;;;6218601;23;20016;-66
2023/06/09 05:40:27;;;;;;;8.95;3.90;;;;;;;;;;6218469;23;20024;-66
2023/06/09 05:42:55;;;;;;;8.18;4.10;;;;;;;;;;6245071;23;20066;-66
2023/06/09 05:45:22;;;;;;;8.75;4.30;;;;;;;;;;6245105;23;20432;-66
2023/06/09 05:47:53;;;;;;;4.97;4.07;;;;;;;;;;6244862;23;20091;-65
2023/06/09 05:50:20;;;;;;;6.50;4.00;;;;;;;;;;6245022;23;20015;-65
2023/06/09 05:52:48;;;;;;;6.32;3.63;;;;;;;;;;6244942;23;20026;-65
2023/06/09 05:55:16;;;;;;;10.02;3.92;;;;;;;;;;6246981;23;20099;-65
2023/06/09 05:57:48;;;;;;;7.78;3.95;;;;;;;;;;6247007;23;20012;-66
2023/06/09 06:00:16;;;;;;;7.40;3.65;;;;;;;;;;6246934;23;20024;-66
2023/06/09 06:02:44;;;;;;;5.78;3.58;;;;;;;;;;6246635;23;20012;-66
2023/06/09 06:05:12;;;;;;;8.13;3.58;;;;;;;;;;6247114;23;20020;-66
2023/06/09 06:07:40;;;;;;;7.40;3.78;;;;;;;;;;6246992;23;20039;-66
2023/06/09 06:10:08;;;;;;;6.90;3.50;;;;;;;;;;6246990;23;20020;-65
2023/06/09 06:12:36;;;;;;;6.03;3.60;;;;;;;;;;6220368;23;20477;-66
2023/06/09 06:15:04;;;;;;;9.77;3.78;;;;;;;;;;6246724;23;20020;-66
2023/06/09 06:17:31;;;;;;;7.45;3.13;;;;;;;;;;6246969;23;20035;-66
2023/06/09 06:19:59;;;;;;;8.48;3.53;;;;;;;;;;6246924;23;20500;-66
2023/06/09 06:22:26;;;;;;;5.43;3.13;;;;;;;;;;6246999;23;20083;-66
2023/06/09 06:24:54;;;;;;;9.43;3.85;;;;;;;;;;6220119;23;20043;-65
2023/06/09 06:27:22;;;;;;;6.90;3.35;;;;;;;;;;6246761;23;20066;-66
2023/06/09 06:29:50;;;;;;;4.35;3.63;;;;;;;;;;6246879;23;20087;-66
2023/06/09 06:32:17;;;;;;;9.43;4.03;;;;;;;;;;6246558;23;20020;-66
2023/06/09 06:34:45;;;;;;;8.15;3.45;;;;;;;;;;6246853;23;20338;-67
2023/06/09 06:37:16;;;;;;;10.65;4.22;;;;;;;;;;6246660;23;20079;-67
2023/06/09 06:39:43;;;;;;;4.82;2.88;;;;;;;;;;6219671;23;20047;-67
2023/06/09 06:42:11;;;;;;;5.18;3.30;;;;;;;;;;6246544;23;20509;-67
2023/06/09 06:44:53;;;;;;;7.55;3.20;;;;;;;;;;6219524;23;20465;-66
2023/06/09 06:47:24;;;;;;;5.10;2.67;;;;;;;;;;6246502;23;20012;-66
2023/06/09 06:49:51;;;;;;;7.15;2.80;;;;;;;;;;6220630;23;20020;-67
2023/06/09 06:52:19;;;;;;;5.40;3.10;;;;;;;;;;6246532;23;20013;-66
2023/06/09 06:54:46;;;;;;;6.15;3.22;;;;;;;;;;6246101;23;20454;-67
2023/06/09 06:57:14;;;;;;;5.50;2.88;;;;;;;;;;6246550;23;20012;-67
2023/06/09 06:59:41;;;;;;;3.95;2.40;;;;;;;;;;6246599;23;20035;-67
2023/06/09 07:02:09;;;;;;;5.72;3.15;;;;;;;;;;6246640;23;20086;-67
2023/06/09 07:04:36;;;;;;;9.07;3.45;;;;;;;;;;6194735;23;20385;-67
2023/06/09 07:07:04;;;;;;;4.25;2.50;;;;;;;;;;6246283;23;20015;-67
2023/06/09 07:09:32;;;;;;;4.40;2.53;;;;;;;;;;6219472;23;20441;-67
2023/06/09 07:11:59;;;;;;;7.40;3.00;;;;;;;;;;6246717;23;20020;-67
2023/06/09 07:14:28;;;;;;;5.75;2.95;;;;;;;;;;6246540;23;20430;-68
2023/06/09 07:16:56;;;;;;;6.40;3.22;;;;;;;;;;6246342;23;20020;-67
2023/06/09 07:19:23;;;;;;;6.82;3.42;;;;;;;;;;6246391;23;20438;-67
2023/06/09 07:21:50;;;;;;;5.32;3.00;;;;;;;;;;6246318;23;20020;-68
2023/06/09 07:24:18;;;;;;;4.22;2.55;;;;;;;;;;6246536;23;20016;-68
2023/06/09 07:26:46;;;;;;;4.05;2.40;;;;;;;;;;6246403;23;20442;-68
2023/06/09 07:29:18;;;;;;;6.30;2.78;;;;;;;;;;6246143;23;20088;-67
2023/06/09 07:31:45;;;;;;;4.53;2.50;;;;;;;;;;6246245;23;20323;-67
2023/06/09 07:34:14;;;;;;;7.10;2.90;;;;;;;;;;6246241;23;20066;-67
2023/06/09 07:36:41;;;;;;;3.03;2.15;;;;;;;;;;6246496;23;20396;-68
2023/06/09 07:39:09;;;;;;;4.78;2.50;;;;;;;;;;6246405;23;20016;-68
2023/06/09 07:41:36;;;;;;;3.80;2.50;;;;;;;;;;6246097;23;20062;-67
2023/06/09 07:44:06;;;;;;;4.07;2.40;;;;;;;;;;6246363;23;20020;-67
2023/06/09 07:46:34;;;;;;;4.93;2.60;;;;;;;;;;6246202;23;20012;-67
2023/06/09 07:49:02;;;;;;;3.95;2.47;;;;;;;;;;6246196;23;20442;-67
2023/06/09 07:51:30;;;;;;;9.95;2.80;;;;;;;;;;6246387;23;20012;-67
2023/06/09 07:53:58;;;;;;;3.72;2.50;;;;;;;;;;6219652;23;20380;-67
2023/06/09 07:56:25;;;;;;;4.00;2.72;;;;;;;;;;6245993;23;20096;-67
2023/06/09 07:58:53;;;;;;;6.32;2.80;;;;;;;;;;6218780;23;20099;-67
2023/06/09 08:01:20;;;;;;;4.22;2.60;;;;;;;;;;6245605;23;20456;-73
2023/06/09 08:03:48;;;;;;;4.60;2.80;;;;;;;;;;6245919;23;20442;-68
2023/06/09 08:06:15;;;;;;;5.25;2.30;;;;;;;;;;6245294;23;20016;-68
2023/06/09 08:08:43;;;;;;;4.10;2.42;;;;;;;;;;6245750;23;20016;-67
2023/06/09 08:11:11;;;;;;;13.07;7.10;;;;;;;;;;6245673;23;20312;-68
2023/06/09 08:13:39;;;;;;;7.78;4.25;;;;;;;;;;6245693;23;20039;-69
2023/06/09 08:16:06;;;;;;;6.18;3.13;;;;;;;;;;6245065;23;20020;-68
2023/06/09 08:18:34;;;;;;;3.72;2.50;;;;;;;;;;6246106;23;20398;-69
2023/06/09 08:21:01;;;;;;;5.50;2.97;;;;;;;;;;6245893;23;20440;-69
2023/06/09 08:23:29;;;;;;;5.75;2.60;;;;;;;;;;6246148;23;20058;-68
2023/06/09 08:26:00;;;;;;;3.80;3.40;;;;;;;;;;6246224;23;20020;-68
2023/06/09 08:28:28;;;;;;;4.78;2.85;;;;;;;;;;6219928;23;20012;-69
2023/06/09 08:30:56;;;;;;;5.32;3.08;;;;;;;;;;6219861;23;20509;-69
2023/06/09 08:33:23;;;;;;;4.22;2.55;;;;;;;;;;6245976;23;20027;-69
2023/06/09 08:35:51;;;;;;;5.40;3.05;;;;;;;;;;6246168;23;20090;-68
2023/06/09 08:38:18;;;;;;;5.15;2.80;;;;;;;;;;6246107;23;20019;-68
2023/06/09 08:40:47;;;;;;;11.98;9.63;;;;;;;;;;6245719;23;20020;-69
2023/06/09 08:43:15;;;;;;;12.32;9.38;;;;;;;;;;6245771;23;20016;-69
2023/06/09 08:45:44;;;;;;;5.30;2.70;;;;;;;;;;6246207;23;20020;-68
2023/06/09 08:48:13;;;;;;;2.88;2.35;;;;;;;;;;6245883;23;20016;-69
2023/06/09 08:50:41;;;;;;;5.95;2.70;;;;;;;;;;6245601;23;20016;-69
2023/06/09 08:53:10;;;;;;;3.83;2.47;;;;;;;;;;6245930;23;20051;-69
2023/06/09 08:55:38;;;;;;;5.10;3.05;;;;;;;;;;6246350;23;20039;-70
2023/06/09 08:58:06;;;;;;;8.20;6.30;;;;;;;;;;6245864;23;20062;-69
2023/06/09 09:00:33;;;;;;;3.90;2.55;;;;;;;;;;6219004;23;20070;-69
2023/06/09 09:03:01;;;;;;;3.80;2.58;;;;;;;;;;6245810;23;20016;-68
2023/06/09 09:05:28;;;;;;;8.80;3.10;;;;;;;;;;6245686;23;20016;-69
2023/06/09 09:07:57;;;;;;;7.05;2.70;;;;;;;;;;6246468;23;20020;-70
2023/06/09 09:10:25;;;;;;;5.90;2.72;;;;;;;;;;6219479;23;20062;-70
2023/06/09 09:12:56;;;;;;;5.13;2.72;;;;;;;;;;6245578;23;20024;-69
2023/06/09 09:15:27;;;;;;;4.70;2.60;;;;;;;;;;6245399;23;20047;-69
2023/06/09 09:17:56;;;;;;;4.53;2.40;;;;;;;;;;6245772;23;20030;-69
2023/06/09 09:20:32;;;;;;;4.07;2.80;;;;;;;;;;6245769;23;20092;-69
2023/06/09 09:23:00;;;;;;;4.15;3.08;;;;;;;;;;6219113;23;20027;-70
2023/06/09 09:25:28;;;;;;;6.78;2.83;;;;;;;;;;6246127;23;20099;-69
2023/06/09 09:27:58;;;;;;;3.30;2.60;;;;;;;;;;6245122;23;20013;-70
2023/06/09 09:30:45;;;;;;;5.65;3.17;;;;;;;;;;6219412;23;20334;-69
2023/06/09 09:33:15;;;;;;;4.85;2.80;;;;;;;;;;6245326;23;20023;-69
2023/06/09 09:35:47;;;;;;;3.45;2.50;;;;;;;;;;6246064;23;20441;-69
2023/06/09 09:38:16;;;;;;;5.35;2.80;;;;;;;;;;6245602;23;20062;-69
2023/06/09 09:40:45;;;;;;;4.35;2.95;;;;;;;;;;6246396;23;20023;-70
2023/06/09 09:43:13;;;;;;;5.45;2.72;;;;;;;;;;6245479;23;20027;-70
2023/06/09 09:45:44;;;;;;;4.25;2.83;;;;;;;;;;6245634;23;20020;-69
2023/06/09 09:48:13;;;;;;;7.90;3.10;;;;;;;;;;6245409;23;20020;-69
2023/06/09 09:50:44;;;;;;;5.82;2.90;;;;;;;;;;6245366;23;20019;-69
2023/06/09 09:53:12;;;;;;;6.95;3.00;;;;;;;;;;6245459;23;20211;-69
2023/06/09 09:55:44;;;;;;;5.43;2.80;;;;;;;;;;6218444;23;20066;-69
2023/06/09 09:58:12;;;;;;;5.20;2.70;;;;;;;;;;6246122;23;20085;-69
2023/06/09 10:00:44;;;;;;;6.03;2.80;;;;;;;;;;6245653;23;20027;-69
2023/06/09 10:03:15;;;;;;;5.25;2.50;;;;;;;;;;6245282;23;20062;-69
2023/06/09 10:05:45;;;;;;;5.72;2.78;;;;;;;;;;6245573;23;20016;-69
2023/06/09 10:08:16;;;;;;;4.70;2.78;;;;;;;;;;6245564;23;20012;-69
2023/06/09 10:10:44;;;;;;;6.47;2.70;;;;;;;;;;6218617;23;20064;-69
2023/06/09 10:13:13;;;;;;;4.53;2.65;;;;;;;;;;6245371;23;20459;-70
2023/06/09 10:15:43;;;;;;;3.63;2.88;;;;;;;;;;6244626;23;20120;-70
2023/06/09 10:18:15;;;;;;;3.47;2.70;;;;;;;;;;6245313;23;20016;-70
2023/06/09 10:20:43;;;;;;;3.97;2.75;;;;;;;;;;6245301;23;20442;-70
2023/06/09 10:23:11;;;;;;;4.05;2.67;;;;;;;;;;6245291;23;20023;-71
2023/06/09 10:25:39;;;;;;;5.47;2.88;;;;;;;;;;6245477;23;20378;-70
2023/06/09 10:28:07;;;;;;;4.20;2.60;;;;;;;;;;6245681;23;20016;-70
2023/06/09 10:30:36;;;;;;;3.50;2.88;;;;;;;;;;6245688;23;20016;-70
2023/06/09 10:33:10;;;;;;;4.50;3.00;;;;;;;;;;6245760;23;20021;-70
2023/06/09 10:35:39;;;;;;;4.88;3.05;;;;;;;;;;6245334;23;20074;-71
2023/06/09 10:38:23;;;;;;;5.10;3.05;;;;;;;;;;6245592;23;20043;-71
2023/06/09 10:40:54;;;;;;;7.35;3.17;;;;;;;;;;6220313;23;20056;-69
2023/06/09 10:43:37;;;;;;;5.90;3.50;;;;;;;;;;6247751;23;20020;-70
2023/06/09 10:46:04;;;;;;;4.35;3.08;;;;;;;;;;6247428;23;20016;-69
2023/06/09 10:48:46;;;;;;;4.30;2.85;;;;;;;;;;6247575;23;20331;-71
2023/06/09 10:51:29;;;;;;;5.85;3.08;;;;;;;;;;6247532;23;20023;-69
2023/06/09 10:54:17;;;;;;;5.18;3.13;;;;;;;;;;6247513;23;20091;-70
2023/06/09 10:57:06;;;;;;;3.95;2.92;;;;;;;;;;6247534;23;20020;-69
2023/06/09 10:59:37;;;;;;;4.30;2.90;;;;;;;;;;6247296;23;20018;-70
2023/06/09 11:02:08;;;;;;;4.30;2.78;;;;;;;;;;6247286;23;20016;-70
2023/06/09 11:04:43;;;;;;;4.47;3.17;;;;;;;;;;6247086;23;20016;-70
2023/06/09 11:07:13;;;;;;;3.45;2.63;;;;;;;;;;6247585;23;20019;-70
2023/06/09 11:09:41;;;;;;;4.55;2.97;;;;;;;;;;6247507;23;20016;-70
2023/06/09 11:12:21;;;;;;;5.28;2.80;;;;;;;;;;6247541;23;20039;-70
2023/06/09 11:14:51;;;;;;;6.28;3.10;;;;;;;;;;6247523;23;20039;-71
2023/06/09 11:17:25;;;;;;;6.93;4.43;;;;;;;;;;6247643;23;20146;-71
2023/06/09 11:20:11;;;;;;;4.45;3.40;;;;;;;;;;6247170;23;20016;-71
2023/06/09 11:22:49;;;;;;;6.53;3.20;;;;;;;;;;6221520;23;20486;-70
2023/06/09 11:25:19;;;;;;;4.45;3.20;;;;;;;;;;6247180;23;20016;-70
2023/06/09 11:28:10;;;;;;;4.63;2.70;;;;;;;;;;6246999;23;20048;-69
2023/06/09 11:31:04;;;;;;;12.07;3.40;;;;;;;;;;6246791;23;20020;-70
2023/06/09 11:33:46;;;;;;;5.90;3.00;;;;;;;;;;6241624;23;20020;-69
2023/06/09 11:36:18;;;;;;;5.88;3.80;;;;;;;;;;6246787;23;20100;-70
2023/06/09 11:38:47;;;;;;;18.10;4.20;;;;;;;;;;6246843;23;20016;-70
2023/06/09 11:41:14;;;;;;;5.95;3.47;;;;;;;;;;6246859;23;20016;-70
2023/06/09 11:44:08;;;;;;;6.28;2.80;;;;;;;;;;6247280;23;20047;-69
2023/06/09 11:46:36;;;;;;;4.13;2.70;;;;;;;;;;6215622;23;20044;-70
2023/06/09 11:49:07;;;;;;;6.93;2.85;;;;;;;;;;6245359;23;20020;-70
2023/06/09 11:51:53;;;;;;;4.82;3.03;;;;;;;;;;6245343;23;20095;-70
2023/06/09 11:54:21;;;;;;;5.97;3.00;;;;;;;;;;6246938;23;20017;-70
2023/06/09 11:56:48;;;;;;;7.18;3.17;;;;;;;;;;6246724;23;20095;-71
2023/06/09 11:59:18;;;;;;;6.22;3.20;;;;;;;;;;6220142;23;20023;-71
2023/06/09 12:01:54;;;;;;;5.20;2.78;;;;;;;;;;6246099;23;20024;-70
2023/06/09 12:04:21;;;;;;;5.22;3.00;;;;;;;;;;6246860;23;20050;-71
2023/06/09 12:06:49;;;;;;;4.43;2.85;;;;;;;;;;6246482;23;20020;-71
2023/06/09 12:09:18;;;;;;;7.43;3.58;;;;;;;;;;6246482;23;20043;-70
2023/06/09 12:11:52;;;;;;;4.70;2.70;;;;;;;;;;6246278;23;20027;-70
2023/06/09 12:14:20;;;;;;;;;;;;;;;;;;6220269;23;20316;-70
2023/06/09 12:16:48;;;;;;;5.82;3.25;;;;;;;;;;6246163;23;19916;-71
2023/06/09 12:19:15;;;;;;;7.15;5.25;;;;;;;;;;6246306;23;20018;-71
2023/06/09 12:21:45;;;;;;;5.00;3.20;;;;;;;;;;6246410;23;20350;-71
2023/06/09 12:24:13;;;;;;;9.13;5.85;;;;;;;;;;6246496;23;20047;-70
2023/06/09 12:26:41;;;;;;;4.10;2.90;;;;;;;;;;6246067;23;20016;-70
2023/06/09 12:29:09;;;;;;;4.90;3.08;;;;;;;;;;6246176;23;20012;-71
2023/06/09 12:31:43;;;;;;;8.40;3.85;;;;;;;;;;6246283;23;20023;-71
2023/06/09 12:34:21;;;;;;;9.05;3.60;;;;;;;;;;6219919;23;20458;-70
2023/06/09 12:36:50;;;;;;;5.75;3.53;;;;;;;;;;6220154;23;20061;-70
2023/06/09 12:39:18;;;;;;;7.15;3.00;;;;;;;;;;6246268;23;20023;-69
2023/06/09 12:41:45;;;;;;;4.63;2.92;;;;;;;;;;6245706;23;20022;-70
2023/06/09 12:44:20;;;;;;;4.50;2.90;;;;;;;;;;6246377;23;20040;-71
2023/06/09 12:46:54;;;;;;;5.82;3.00;;;;;;;;;;6246309;23;20023;-70
2023/06/09 12:49:32;;;;;;;9.98;3.88;;;;;;;;;;6246355;23;20016;-72
2023/06/09 12:52:00;;;;;;;4.30;3.10;;;;;;;;;;6245919;23;20088;-72
2023/06/09 12:54:28;;;;;;;4.95;3.15;;;;;;;;;;6246020;23;20038;-71
2023/06/09 12:56:56;;;;;;;5.80;3.20;;;;;;;;;;6246457;23;20051;-71
2023/06/09 12:59:24;;;;;;;5.25;3.20;;;;;;;;;;6219267;23;20012;-71
2023/06/09 13:01:53;;;;;;;4.65;3.22;;;;;;;;;;6219018;23;20466;-71
2023/06/09 13:04:21;;;;;;;8.00;3.20;;;;;;;;;;6245830;23;20022;-72
2023/06/09 13:06:49;;;;;;;5.85;3.20;;;;;;;;;;6246137;23;20039;-72
2023/06/09 13:09:16;;;;;;;8.27;3.28;;;;;;;;;;6245875;23;20095;-72
2023/06/09 13:11:44;;;;;;;6.03;3.50;;;;;;;;;;6243738;23;20087;-72
2023/06/09 13:14:12;;;;;;;5.65;3.20;;;;;;;;;;6245385;23;20023;-71
2023/06/09 13:16:39;;;;;;;6.30;3.47;;;;;;;;;;6245618;23;20027;-72
2023/06/09 13:19:07;;;;;;;7.80;3.53;;;;;;;;;;6245211;23;20012;-71
2023/06/09 13:21:34;;;;;;;5.65;3.17;;;;;;;;;;6245486;23;20442;-71
2023/06/09 13:24:11;;;;;;;4.20;3.10;;;;;;;;;;6245235;23;20016;-71
2023/06/09 13:26:40;;;;;;;5.85;3.63;;;;;;;;;;6245694;23;20043;-71
2023/06/09 13:29:09;;;;;;;12.00;7.82;;;;;;;;;;6245028;23;20016;-72
2023/06/09 13:31:36;;;;;;;7.22;3.63;;;;;;;;;;6245764;23;20087;-71
2023/06/09 13:34:04;;;;;;;8.38;3.05;;;;;;;;;;6245732;23;20046;-71
2023/06/09 13:36:32;;;;;;;4.50;3.78;;;;;;;;;;6245465;23;20016;-71
2023/06/09 13:38:59;;;;;;;6.53;4.07;;;;;;;;;;6245784;23;20040;-71
2023/06/09 13:41:30;;;;;;;11.25;4.32;;;;;;;;;;6245375;23;20012;-70
2023/06/09 13:44:03;;;;;;;4.75;2.90;;;;;;;;;;6244715;23;20051;-71
2023/06/09 13:46:31;;;;;;;7.85;3.83;;;;;;;;;;6244445;23;20343;-69
2023/06/09 13:48:58;;;;;;;6.20;3.75;;;;;;;;;;6244580;23;20019;-68
2023/06/09 13:51:26;;;;;;;4.50;3.45;;;;;;;;;;6218187;23;20024;-69
2023/06/09 13:53:53;;;;;;;11.93;8.40;;;;;;;;;;6244867;23;20035;-68
2023/06/09 13:56:21;;;;;;;7.30;4.90;;;;;;;;;;6244686;23;20135;-69
2023/06/09 13:58:48;;;;;;;8.20;3.55;;;;;;;;;;6217927;23;20343;-66
2023/06/09 14:01:16;;;;;;;6.22;3.30;;;;;;;;;;6244833;23;20052;-66
2023/06/09 14:03:44;;;;;;;6.88;3.22;;;;;;;;;;6218447;23;20442;-67
2023/06/09 14:06:12;;;;;;;5.68;3.33;;;;;;;;;;6244645;23;20331;-67
2023/06/09 14:08:40;;;;;;;4.32;2.90;;;;;;;;;;6218623;23;20496;-67
2023/06/09 14:11:08;;;;;;;5.82;3.90;;;;;;;;;;6245103;23;20338;-67
2023/06/09 14:13:35;;;;;;;6.88;3.03;;;;;;;;;;6218953;22;20028;-67
2023/06/09 14:16:03;;;;;;;5.78;3.60;;;;;;;;;;6246080;23;20067;-66
2023/06/09 14:18:32;;;;;;;7.40;3.13;;;;;;;;;;6246738;23;20091;-66
2023/06/09 14:21:00;;;;;;;5.40;3.00;;;;;;;;;;6247176;23;20012;-66
2023/06/09 14:23:28;;;;;;;5.45;3.05;;;;;;;;;;6247215;23;20020;-67
2023/06/09 14:25:55;;;;;;;5.38;3.30;;;;;;;;;;6220579;23;20017;-67
2023/06/09 14:28:23;;;;;;;6.18;3.17;;;;;;;;;;6247179;23;20016;-66
2023/06/09 14:30:50;;;;;;;7.95;3.00;;;;;;;;;;6247897;23;20338;-67
2023/06/09 14:33:18;;;;;;;5.40;3.08;;;;;;;;;;6246889;23;20036;-67
2023/06/09 14:35:46;;;;;;;4.85;3.05;;;;;;;;;;6247839;23;20047;-67
2023/06/09 14:38:13;;;;;;;5.50;2.90;;;;;;;;;;6247439;23;20026;-66
2023/06/09 14:40:41;;;;;;;6.72;3.15;;;;;;;;;;6246783;23;20330;-67
2023/06/09 14:43:09;;;;;;;6.78;3.50;;;;;;;;;;6247283;23;20016;-66
2023/06/09 14:45:37;;;;;;;5.47;3.42;;;;;;;;;;6247036;23;20022;-67
2023/06/09 14:48:08;;;;;;;6.60;3.95;;;;;;;;;;6247724;23;20073;-67
2023/06/09 14:50:41;;;;;;;8.70;4.40;;;;;;;;;;6247579;23;20074;-66
2023/06/09 14:53:10;;;;;;;5.05;3.35;;;;;;;;;;6247046;23;20020;-66
2023/06/09 14:55:40;;;;;;;7.70;3.85;;;;;;;;;;6246842;23;20444;-67